Terminal Aerodrome Forecast
Issued by NWS Charleston, WV

Current Version | Previous Version | Graphics & Text | Print | Product List | Glossary On
Versions: 1 2 3 4 5 6 7 8 9 10 11 12 13 14 15 16 17 18 19 20 21 22 23 24 25 26 27
313
FTUS41 KRLX 221755
TAFEKN
TAF
KEKN 221755Z 2218/2318 VRB03KT P6SM OVC060
     FM230300 00000KT 5SM BR BKN035
     FM230900 00000KT 2SM BR BKN050
     FM231000 00000KT 3SM BR BKN050
     FM231400 VRB03KT P6SM BKN040=

USA.gov is the U.S. government's official web portal to all federal, state and local government web resources and services.